createdAt,value
2022-12-03T00:00:35.709Z,9.04
2022-12-03T00:01:35.685Z,9.04
2022-12-03T00:02:35.846Z,9.01
2022-12-03T00:03:35.856Z,9.04
2022-12-03T00:04:35.643Z,9.02
2022-12-03T00:05:35.633Z,9.04
2022-12-03T00:06:35.619Z,9.05
2022-12-03T00:07:35.616Z,9.04
2022-12-03T00:08:35.591Z,9.02
2022-12-03T00:09:35.578Z,9.02
2022-12-03T00:10:35.566Z,9.02
2022-12-03T00:11:35.552Z,9.02
2022-12-03T00:12:35.551Z,9.02
2022-12-03T00:13:35.527Z,9.04
2022-12-03T00:14:39.966Z,9.02
2022-12-03T00:15:36.628Z,9.04
2022-12-03T00:16:35.487Z,9.04
2022-12-03T00:17:35.477Z,9.02
2022-12-03T00:18:35.491Z,9.02
2022-12-03T00:19:35.451Z,9.04
2022-12-03T00:20:35.438Z,9.01
2022-12-03T00:21:35.425Z,9.01
2022-12-03T00:22:35.410Z,9.02
2022-12-03T00:23:41.523Z,9.02
2022-12-03T00:24:36.424Z,9.02
2022-12-03T00:25:35.373Z,9.02
2022-12-03T00:26:35.357Z,9.02
2022-12-03T00:27:35.352Z,9.02
2022-12-03T00:28:35.330Z,9.02
2022-12-03T00:29:35.320Z,9.05
2022-12-03T00:30:35.324Z,9.02
2022-12-03T00:31:35.386Z,9.04
2022-12-03T00:32:35.280Z,9.02
2022-12-03T00:33:35.268Z,9.02
2022-12-03T00:34:35.275Z,9.02
2022-12-03T00:35:35.305Z,9.04
2022-12-03T00:36:35.227Z,9.04
2022-12-03T00:37:35.218Z,9.02
2022-12-03T00:38:35.201Z,9.01
2022-12-03T00:39:35.190Z,9.02
2022-12-03T00:40:35.175Z,9.02
2022-12-03T00:41:35.163Z,9.04
2022-12-03T00:42:35.149Z,9.04
2022-12-03T00:43:35.138Z,9.05
2022-12-03T00:44:35.126Z,9.02
2022-12-03T00:45:35.115Z,9.02
2022-12-03T00:46:35.154Z,9.01
2022-12-03T00:47:35.088Z,9.02
2022-12-03T00:48:35.073Z,9.01
2022-12-03T00:49:35.064Z,9.04
2022-12-03T00:50:35.070Z,9.02
2022-12-03T00:51:35.035Z,9.01
2022-12-03T00:52:35.021Z,9.01
2022-12-03T00:53:35.009Z,9.01
2022-12-03T00:54:34.995Z,9.04
2022-12-03T00:55:34.982Z,9.01
2022-12-03T00:56:34.966Z,9.02
2022-12-03T00:57:34.956Z,9.01
2022-12-03T00:58:34.945Z,9.01
2022-12-03T00:59:34.933Z,9.02
2022-12-03T01:00:34.917Z,9.01
2022-12-03T01:01:34.977Z,9.01
2022-12-03T01:02:34.890Z,9.01
2022-12-03T01:03:34.879Z,9.01
2022-12-03T01:04:34.936Z,8.97
2022-12-03T01:05:34.852Z,9.01
2022-12-03T01:06:34.863Z,8.99
2022-12-03T01:07:34.897Z,9.01
2022-12-03T01:08:34.812Z,9.02
2022-12-03T01:09:34.801Z,9.02
2022-12-03T01:10:34.789Z,9.02
2022-12-03T01:11:34.780Z,9.02
2022-12-03T01:12:34.761Z,9.02
2022-12-03T01:13:34.749Z,9.01
2022-12-03T01:14:34.735Z,9.01
2022-12-03T01:15:34.755Z,9.01
2022-12-03T01:16:34.828Z,9.02
2022-12-03T01:17:34.696Z,9.02
2022-12-03T01:18:34.682Z,9.04
2022-12-03T01:19:34.672Z,9.04
2022-12-03T01:20:34.657Z,9.04
2022-12-03T01:21:34.653Z,9.02
2022-12-03T01:22:34.655Z,9.02
2022-12-03T01:23:34.622Z,9.02
2022-12-03T01:24:34.606Z,9.02
2022-12-03T01:25:34.594Z,9.01
2022-12-03T01:26:34.578Z,9.02
2022-12-03T01:27:34.567Z,9.04
2022-12-03T01:28:34.553Z,9.02
2022-12-03T01:29:34.542Z,9.02
2022-12-03T01:30:34.527Z,9.05
2022-12-03T01:31:34.586Z,9.04
2022-12-03T01:32:34.506Z,9.04
2022-12-03T01:33:34.489Z,9.04
2022-12-03T01:34:34.475Z,9.04
2022-12-03T01:35:34.463Z,9.02
2022-12-03T01:36:34.449Z,9.02
2022-12-03T01:37:34.436Z,9.01
2022-12-03T01:38:34.447Z,9.02
2022-12-03T01:39:34.416Z,9.04
2022-12-03T01:40:34.397Z,9.05
2022-12-03T01:41:34.390Z,9.05
2022-12-03T01:42:34.369Z,9.04
2022-12-03T01:43:34.358Z,9.02
2022-12-03T01:44:34.343Z,9.02
2022-12-03T01:45:34.332Z,9.04
2022-12-03T01:46:34.382Z,9.04
2022-12-03T01:47:34.305Z,9.04
2022-12-03T01:48:34.290Z,9.05
2022-12-03T01:49:34.280Z,9.04
2022-12-03T01:50:34.265Z,9.04
2022-12-03T01:51:34.253Z,9.04
2022-12-03T01:52:34.236Z,9.02
2022-12-03T01:53:34.227Z,9.04
2022-12-03T01:54:34.237Z,9.04
2022-12-03T01:55:34.199Z,9.02
2022-12-03T01:56:34.183Z,9.01
2022-12-03T01:57:34.174Z,9.02
2022-12-03T01:58:34.159Z,9.02
2022-12-03T01:59:34.151Z,9.02
2022-12-03T02:00:34.138Z,9.04
2022-12-03T02:01:34.184Z,9.04
2022-12-03T02:02:34.109Z,9.04
2022-12-03T02:03:34.199Z,9.02
2022-12-03T02:04:34.080Z,9.04
2022-12-03T02:05:34.069Z,9.04
2022-12-03T02:06:34.055Z,9.02
2022-12-03T02:07:34.112Z,9.01
2022-12-03T02:08:34.030Z,9.02
2022-12-03T02:09:34.019Z,9.02
2022-12-03T02:10:34.029Z,9.02
2022-12-03T02:11:33.990Z,9.04
2022-12-03T02:12:33.975Z,9.02
2022-12-03T02:13:33.963Z,9.04
2022-12-03T02:14:33.950Z,9.04
2022-12-03T02:15:33.937Z,9.04
2022-12-03T02:16:33.964Z,9.01
2022-12-03T02:17:33.912Z,9.04
2022-12-03T02:18:33.896Z,9.01
2022-12-03T02:19:33.886Z,9.02
2022-12-03T02:20:33.870Z,9.02
2022-12-03T02:21:33.858Z,9.02
2022-12-03T02:22:33.872Z,9.02
2022-12-03T02:23:33.832Z,9.04
2022-12-03T02:24:33.818Z,9.02
2022-12-03T02:25:33.813Z,9.02
2022-12-03T02:26:33.818Z,9.02
2022-12-03T02:27:33.781Z,9.02
2022-12-03T02:28:33.767Z,9.04
2022-12-03T02:29:33.762Z,9.02
2022-12-03T02:30:33.768Z,9.02
2022-12-03T02:31:33.812Z,9.02
2022-12-03T02:32:33.712Z,9.01
2022-12-03T02:33:33.700Z,9.01
2022-12-03T02:34:33.689Z,9.02
2022-12-03T02:35:33.674Z,9.02
2022-12-03T02:36:33.664Z,9.01
2022-12-03T02:37:33.648Z,9.01
2022-12-03T02:38:33.640Z,9.01
2022-12-03T02:39:33.625Z,9.01
2022-12-03T02:40:33.611Z,9.02
2022-12-03T02:41:33.597Z,9.04
2022-12-03T02:42:33.608Z,9.01
2022-12-03T02:43:33.569Z,9.01
2022-12-03T02:44:33.561Z,9.04
2022-12-03T02:45:33.545Z,9.04
2022-12-03T02:46:33.610Z,9.02
2022-12-03T02:47:33.519Z,9.02
2022-12-03T02:48:33.512Z,9.02
2022-12-03T02:49:33.493Z,9.04
2022-12-03T02:50:33.481Z,9.02
2022-12-03T02:51:33.467Z,9.05
2022-12-03T02:52:33.455Z,9.04
2022-12-03T02:53:33.444Z,9.04
2022-12-03T02:54:33.430Z,9.05
2022-12-03T02:55:36.765Z,9.05
2022-12-03T02:56:33.407Z,9.05
2022-12-03T02:57:33.390Z,9.05
2022-12-03T02:58:33.405Z,9.04
2022-12-03T02:59:33.366Z,9.02
2022-12-03T03:00:33.459Z,9.04
2022-12-03T03:01:33.461Z,9.04
2022-12-03T03:02:33.476Z,9.02
2022-12-03T03:03:33.330Z,9.04
2022-12-03T03:04:33.302Z,9.02
2022-12-03T03:05:33.287Z,9.02
2022-12-03T03:06:33.275Z,9.02
2022-12-03T03:07:33.341Z,9.02
2022-12-03T03:08:33.250Z,9.02
2022-12-03T03:09:33.236Z,9.01
2022-12-03T03:10:33.224Z,9.02
2022-12-03T03:11:33.210Z,9.02
2022-12-03T03:12:38.860Z,9.02
2022-12-03T03:13:34.227Z,9.04
2022-12-03T03:14:33.199Z,9.01
2022-12-03T03:15:33.156Z,9.02
2022-12-03T03:16:33.236Z,9.04
2022-12-03T03:17:33.129Z,9.04
2022-12-03T03:18:33.118Z,9.02
2022-12-03T03:19:33.102Z,9.02
2022-12-03T03:20:33.092Z,9.02
2022-12-03T03:21:33.078Z,9.01
2022-12-03T03:22:33.066Z,9.01
2022-12-03T03:23:33.051Z,9.01
2022-12-03T03:24:33.039Z,9.01
2022-12-03T03:25:33.028Z,9.01
2022-12-03T03:26:33.014Z,9.02
2022-12-03T03:27:32.997Z,9.02
2022-12-03T03:28:32.990Z,9.04
2022-12-03T03:29:32.972Z,9.04
2022-12-03T03:30:32.994Z,9.04
2022-12-03T03:31:33.018Z,9.02
2022-12-03T03:32:32.941Z,9.01
2022-12-03T03:33:32.920Z,9.04
2022-12-03T03:34:32.908Z,9.01
2022-12-03T03:35:32.894Z,9.01
2022-12-03T03:36:32.907Z,8.99
2022-12-03T03:37:32.871Z,9.02
2022-12-03T03:38:32.855Z,9.01
2022-12-03T03:39:32.844Z,9.01
2022-12-03T03:40:32.832Z,9.01
2022-12-03T03:41:32.816Z,9.02
2022-12-03T03:42:32.805Z,9.01
2022-12-03T03:43:32.790Z,9.01
2022-12-03T03:44:32.781Z,8.99
2022-12-03T03:45:32.868Z,9.01
2022-12-03T03:46:32.816Z,9.02
2022-12-03T03:47:32.739Z,9.02
2022-12-03T03:48:32.727Z,9.02
2022-12-03T03:49:32.711Z,9.01
2022-12-03T03:50:32.700Z,9.01
2022-12-03T03:51:32.686Z,8.99
2022-12-03T03:52:32.674Z,8.99
2022-12-03T03:53:32.662Z,8.99
2022-12-03T03:54:32.647Z,8.99
2022-12-03T03:55:32.633Z,9.01
2022-12-03T03:56:32.621Z,8.99
2022-12-03T03:57:32.605Z,9.01
2022-12-03T03:58:32.595Z,8.99
2022-12-03T03:59:32.583Z,9.01
2022-12-03T04:00:32.571Z,9.01
2022-12-03T04:01:32.654Z,9.02
2022-12-03T04:02:32.567Z,9.01
2022-12-03T04:03:32.528Z,8.99
2022-12-03T04:04:32.645Z,9.01
2022-12-03T04:05:32.505Z,8.99
2022-12-03T04:06:32.490Z,8.97
2022-12-03T04:07:32.545Z,8.99
2022-12-03T04:08:32.465Z,8.97
2022-12-03T04:09:32.451Z,9.02
2022-12-03T04:10:32.438Z,9.01
2022-12-03T04:11:32.426Z,9.01
2022-12-03T04:12:32.413Z,8.99
2022-12-03T04:13:32.397Z,8.97
2022-12-03T04:14:32.385Z,8.97
2022-12-03T04:15:32.370Z,8.99
2022-12-03T04:16:32.449Z,9.01
2022-12-03T04:17:32.345Z,8.99
2022-12-03T04:18:32.359Z,9.01
2022-12-03T04:19:32.320Z,9.01
2022-12-03T04:20:32.309Z,8.99
2022-12-03T04:21:32.295Z,8.99
2022-12-03T04:22:32.281Z,9.01
2022-12-03T04:23:32.267Z,8.99
2022-12-03T04:24:32.256Z,8.97
2022-12-03T04:25:32.242Z,8.99
2022-12-03T04:26:32.227Z,9.01
2022-12-03T04:27:32.218Z,8.99
2022-12-03T04:28:32.206Z,8.99
2022-12-03T04:29:32.190Z,9.01
2022-12-03T04:30:32.267Z,8.99
2022-12-03T04:31:32.172Z,8.99
2022-12-03T04:32:32.152Z,8.99
2022-12-03T04:33:32.139Z,8.99
2022-12-03T04:34:32.151Z,8.99
2022-12-03T04:35:32.202Z,8.99
2022-12-03T04:36:32.102Z,9.01
2022-12-03T04:37:32.085Z,8.99
2022-12-03T04:38:32.075Z,8.97
2022-12-03T04:39:32.064Z,8.99
2022-12-03T04:40:32.049Z,9.02
2022-12-03T04:41:32.035Z,8.99
2022-12-03T04:42:32.023Z,8.99
2022-12-03T04:43:32.009Z,8.99
2022-12-03T04:44:31.997Z,8.97
2022-12-03T04:45:32.275Z,9.01
2022-12-03T04:46:32.052Z,8.99
2022-12-03T04:47:35.499Z,8.97
2022-12-03T04:48:32.985Z,8.99
2022-12-03T04:49:31.930Z,9.01
2022-12-03T04:50:31.973Z,8.99
2022-12-03T04:51:31.905Z,8.99
2022-12-03T04:52:31.901Z,8.99
2022-12-03T04:53:31.879Z,9.01
2022-12-03T04:54:31.867Z,9.01
2022-12-03T04:55:31.856Z,8.99
2022-12-03T04:56:31.846Z,8.99
2022-12-03T04:57:31.827Z,8.99
2022-12-03T04:58:31.815Z,9.01
2022-12-03T04:59:31.801Z,8.99
2022-12-03T05:00:31.909Z,9.01
2022-12-03T05:01:31.876Z,8.99
2022-12-03T05:02:31.837Z,9.01
2022-12-03T05:03:31.749Z,9.02
2022-12-03T05:04:31.737Z,8.99
2022-12-03T05:05:31.729Z,8.99
2022-12-03T05:06:31.748Z,9.01
2022-12-03T05:07:31.745Z,9.01
2022-12-03T05:08:31.683Z,9.01
2022-12-03T05:09:31.672Z,8.99
2022-12-03T05:10:31.671Z,9.01
2022-12-03T05:11:31.642Z,8.99
2022-12-03T05:12:31.633Z,8.99
2022-12-03T05:13:31.616Z,9.01
2022-12-03T05:14:31.604Z,9.01
2022-12-03T05:15:31.597Z,8.99
2022-12-03T05:16:31.659Z,9.01
2022-12-03T05:17:31.560Z,8.99
2022-12-03T05:18:31.551Z,8.97
2022-12-03T05:19:31.533Z,8.97
2022-12-03T05:20:31.521Z,8.97
2022-12-03T05:21:31.507Z,8.97
2022-12-03T05:22:31.522Z,8.97
2022-12-03T05:23:31.481Z,8.97
2022-12-03T05:24:31.471Z,8.96
2022-12-03T05:25:31.462Z,8.97
2022-12-03T05:26:31.451Z,8.99
2022-12-03T05:27:31.437Z,8.97
2022-12-03T05:28:31.422Z,8.96
2022-12-03T05:29:31.406Z,8.99
2022-12-03T05:30:31.543Z,8.97
2022-12-03T05:31:31.484Z,8.97
2022-12-03T05:32:31.368Z,8.96
2022-12-03T05:33:31.353Z,8.97
2022-12-03T05:34:31.342Z,8.97
2022-12-03T05:35:31.351Z,8.97
2022-12-03T05:36:31.318Z,8.97
2022-12-03T05:37:31.300Z,8.97
2022-12-03T05:38:31.318Z,8.96
2022-12-03T05:39:31.276Z,8.96
2022-12-03T05:40:31.264Z,8.96
2022-12-03T05:41:31.254Z,8.99
2022-12-03T05:42:31.236Z,8.96
2022-12-03T05:43:31.230Z,8.96
2022-12-03T05:44:31.211Z,8.94
2022-12-03T05:45:31.198Z,8.96
2022-12-03T05:46:31.247Z,8.94
2022-12-03T05:47:31.169Z,8.96
2022-12-03T05:48:31.160Z,8.96
2022-12-03T05:49:31.144Z,8.97
2022-12-03T05:50:31.132Z,8.97
2022-12-03T05:51:31.118Z,8.97
2022-12-03T05:52:31.107Z,8.97
2022-12-03T05:53:31.091Z,8.97
2022-12-03T05:54:31.103Z,8.97
2022-12-03T05:55:31.064Z,8.97
2022-12-03T05:56:31.052Z,8.99
2022-12-03T05:57:31.037Z,8.97
2022-12-03T05:58:31.026Z,8.99
2022-12-03T05:59:31.021Z,8.97
2022-12-03T06:00:30.999Z,8.99
2022-12-03T06:01:30.985Z,8.99
2022-12-03T06:02:31.094Z,8.96
2022-12-03T06:03:31.195Z,8.99
2022-12-03T06:04:30.950Z,8.99
2022-12-03T06:05:31.032Z,8.99
2022-12-03T06:06:30.921Z,8.97
2022-12-03T06:07:30.979Z,8.97
2022-12-03T06:08:30.896Z,8.96
2022-12-03T06:09:30.881Z,8.96
2022-12-03T06:10:30.910Z,8.97
2022-12-03T06:11:30.860Z,8.96
2022-12-03T06:12:30.843Z,8.96
2022-12-03T06:13:30.828Z,8.96
2022-12-03T06:14:30.817Z,8.96
2022-12-03T06:15:30.975Z,8.96
2022-12-03T06:16:30.892Z,8.96
2022-12-03T06:17:30.777Z,8.94
2022-12-03T06:18:30.768Z,8.96
2022-12-03T06:19:30.750Z,8.96
2022-12-03T06:20:30.739Z,8.96
2022-12-03T06:21:30.729Z,8.94
2022-12-03T06:22:30.713Z,8.94
2022-12-03T06:23:30.697Z,8.94
2022-12-03T06:24:30.686Z,8.97
2022-12-03T06:25:30.672Z,8.94
2022-12-03T06:26:30.683Z,8.97
2022-12-03T06:27:30.645Z,8.96
2022-12-03T06:28:30.632Z,8.96
2022-12-03T06:29:30.620Z,8.96
2022-12-03T06:30:30.621Z,8.96
2022-12-03T06:31:30.720Z,8.96
2022-12-03T06:32:30.581Z,8.97
2022-12-03T06:33:30.567Z,8.97
2022-12-03T06:34:30.555Z,8.97
2022-12-03T06:35:30.541Z,8.94
2022-12-03T06:36:30.528Z,8.94
2022-12-03T06:37:30.514Z,8.94
2022-12-03T06:38:30.501Z,8.93
2022-12-03T06:39:30.485Z,8.93
2022-12-03T06:40:30.475Z,8.94
2022-12-03T06:41:30.461Z,8.96
2022-12-03T06:42:30.475Z,8.94
2022-12-03T06:43:30.434Z,8.94
2022-12-03T06:44:30.423Z,8.96
2022-12-03T06:45:30.409Z,8.96
2022-12-03T06:46:30.484Z,8.94
2022-12-03T06:47:30.382Z,8.94
2022-12-03T06:48:30.371Z,8.94
2022-12-03T06:49:30.357Z,8.96
2022-12-03T06:50:30.341Z,8.96
2022-12-03T06:51:30.329Z,8.94
2022-12-03T06:52:30.316Z,8.94
2022-12-03T06:53:30.304Z,8.96
2022-12-03T06:54:30.290Z,8.94
2022-12-03T06:55:30.277Z,8.96
2022-12-03T06:56:35.803Z,8.96
2022-12-03T06:57:31.294Z,8.96
2022-12-03T06:58:30.262Z,8.96
2022-12-03T06:59:30.225Z,8.96
2022-12-03T07:00:30.238Z,8.94
2022-12-03T07:01:30.295Z,8.96
2022-12-03T07:02:30.274Z,8.96
2022-12-03T07:03:30.172Z,8.96
2022-12-03T07:04:30.157Z,8.96
2022-12-03T07:05:30.146Z,8.96
2022-12-03T07:06:30.142Z,8.94
2022-12-03T07:07:30.197Z,8.97
2022-12-03T07:08:30.105Z,8.94
2022-12-03T07:09:30.098Z,8.96
2022-12-03T07:10:30.080Z,8.94
2022-12-03T07:11:30.083Z,8.94
2022-12-03T07:12:30.054Z,8.96
2022-12-03T07:13:30.042Z,8.94
2022-12-03T07:14:30.052Z,8.96
2022-12-03T07:15:30.015Z,8.96
2022-12-03T07:16:30.065Z,8.96
2022-12-03T07:17:29.991Z,8.94
2022-12-03T07:18:29.974Z,8.96
2022-12-03T07:19:32.841Z,8.96
2022-12-03T07:20:29.948Z,8.96
2022-12-03T07:21:29.935Z,8.96
2022-12-03T07:22:29.920Z,8.96
2022-12-03T07:23:29.908Z,8.96
2022-12-03T07:24:29.898Z,8.94
2022-12-03T07:25:29.886Z,8.96
2022-12-03T07:26:29.871Z,8.97
2022-12-03T07:27:29.857Z,8.96
2022-12-03T07:28:29.842Z,8.96
2022-12-03T07:29:29.829Z,8.96
2022-12-03T07:30:29.841Z,8.99
2022-12-03T07:31:29.844Z,8.97
2022-12-03T07:32:29.789Z,8.94
2022-12-03T07:33:29.777Z,8.96
2022-12-03T07:34:29.763Z,8.94
2022-12-03T07:35:29.751Z,8.96
2022-12-03T07:36:29.736Z,8.96
2022-12-03T07:37:29.728Z,8.96
2022-12-03T07:38:29.709Z,8.94
2022-12-03T07:39:29.699Z,8.96
2022-12-03T07:40:29.684Z,8.94
2022-12-03T07:41:29.672Z,8.93
2022-12-03T07:42:29.658Z,8.96
2022-12-03T07:43:29.645Z,8.94
2022-12-03T07:44:29.632Z,8.97
2022-12-03T07:45:29.619Z,8.97
2022-12-03T07:46:29.679Z,8.96
2022-12-03T07:47:29.593Z,8.96
2022-12-03T07:48:29.578Z,8.94
2022-12-03T07:49:29.568Z,8.94
2022-12-03T07:50:29.552Z,8.94
2022-12-03T07:51:32.370Z,8.94
2022-12-03T07:52:29.524Z,8.94
2022-12-03T07:53:29.513Z,8.96
2022-12-03T07:54:29.507Z,8.96
2022-12-03T07:55:29.490Z,8.96
2022-12-03T07:56:29.474Z,8.96
2022-12-03T07:57:29.460Z,8.94
2022-12-03T07:58:29.446Z,8.94
2022-12-03T07:59:29.435Z,8.96
2022-12-03T08:00:29.526Z,8.96
2022-12-03T08:01:29.472Z,8.96
2022-12-03T08:02:29.487Z,8.93
2022-12-03T08:03:29.379Z,8.96
2022-12-03T08:04:29.365Z,8.96
2022-12-03T08:05:29.354Z,8.96
2022-12-03T08:06:29.337Z,8.96
2022-12-03T08:07:29.408Z,8.96
2022-12-03T08:08:29.317Z,8.96
2022-12-03T08:09:29.302Z,8.96
2022-12-03T08:10:29.288Z,8.97
2022-12-03T08:11:29.277Z,8.96
2022-12-03T08:12:29.258Z,8.97
2022-12-03T08:13:29.250Z,8.97
2022-12-03T08:14:29.235Z,8.94
2022-12-03T08:15:33.634Z,8.99
2022-12-03T08:16:29.260Z,8.99
2022-12-03T08:17:29.200Z,8.97
2022-12-03T08:18:29.204Z,8.96
2022-12-03T08:19:29.220Z,8.94
2022-12-03T08:20:29.155Z,8.96
2022-12-03T08:21:29.146Z,8.97
2022-12-03T08:22:29.129Z,8.96
2022-12-03T08:23:29.118Z,8.96
2022-12-03T08:24:29.109Z,8.96
2022-12-03T08:25:29.093Z,8.96
2022-12-03T08:26:29.076Z,8.96
2022-12-03T08:27:29.067Z,8.96
2022-12-03T08:28:29.060Z,8.97
2022-12-03T08:29:29.039Z,8.96
2022-12-03T08:30:29.024Z,8.97
2022-12-03T08:31:33.265Z,8.94
2022-12-03T08:32:29.004Z,8.94
2022-12-03T08:33:28.986Z,8.96
2022-12-03T08:34:28.994Z,8.94
2022-12-03T08:35:28.960Z,8.97
2022-12-03T08:36:28.946Z,8.96
2022-12-03T08:37:28.935Z,8.97
2022-12-03T08:38:28.919Z,8.96
2022-12-03T08:39:28.913Z,8.96
2022-12-03T08:40:28.897Z,8.97
2022-12-03T08:41:28.882Z,8.94
2022-12-03T08:42:28.868Z,8.96
2022-12-03T08:43:28.858Z,8.96
2022-12-03T08:44:28.839Z,8.96
2022-12-03T08:45:28.928Z,8.94
2022-12-03T08:46:28.900Z,8.94
2022-12-03T08:47:28.801Z,8.96
2022-12-03T08:48:28.812Z,8.96
2022-12-03T08:49:28.776Z,8.96
2022-12-03T08:50:28.785Z,8.94
2022-12-03T08:51:28.758Z,8.94
2022-12-03T08:52:28.741Z,8.94
2022-12-03T08:53:28.728Z,8.96
2022-12-03T08:54:28.711Z,8.96
2022-12-03T08:55:28.704Z,8.97
2022-12-03T08:56:28.684Z,8.96
2022-12-03T08:57:28.675Z,8.96
2022-12-03T08:58:28.659Z,8.96
2022-12-03T08:59:28.648Z,8.96
2022-12-03T09:00:28.630Z,8.96
2022-12-03T09:01:28.700Z,8.96
2022-12-03T09:02:28.603Z,8.97
2022-12-03T09:03:28.591Z,8.97
2022-12-03T09:04:28.647Z,8.96
2022-12-03T09:05:28.565Z,8.96
2022-12-03T09:06:28.651Z,8.96
2022-12-03T09:07:28.601Z,8.96
2022-12-03T09:08:28.525Z,8.94
2022-12-03T09:09:28.511Z,8.94
2022-12-03T09:10:28.506Z,8.96
2022-12-03T09:11:28.487Z,8.94
2022-12-03T09:12:28.471Z,8.96
2022-12-03T09:13:28.460Z,8.96
2022-12-03T09:14:28.445Z,8.96
2022-12-03T09:15:28.451Z,8.96
2022-12-03T09:16:28.515Z,8.96
2022-12-03T09:17:28.408Z,8.96
2022-12-03T09:18:28.391Z,8.93
2022-12-03T09:19:28.386Z,8.96
2022-12-03T09:20:28.366Z,8.96
2022-12-03T09:21:28.358Z,8.96
2022-12-03T09:22:28.365Z,8.96
2022-12-03T09:23:28.329Z,8.96
2022-12-03T09:24:28.315Z,8.96
2022-12-03T09:25:28.303Z,8.96
2022-12-03T09:26:28.287Z,8.97
2022-12-03T09:27:28.274Z,8.97
2022-12-03T09:28:28.260Z,8.97
2022-12-03T09:29:28.250Z,8.97
2022-12-03T09:30:28.234Z,8.97
2022-12-03T09:31:28.316Z,8.96
2022-12-03T09:32:28.276Z,8.99
2022-12-03T09:33:28.196Z,8.97
2022-12-03T09:34:28.182Z,8.97
2022-12-03T09:35:28.172Z,8.97
2022-12-03T09:36:28.154Z,8.97
2022-12-03T09:37:28.144Z,8.97
2022-12-03T09:38:28.151Z,8.99
2022-12-03T09:39:28.116Z,8.99
2022-12-03T09:40:28.107Z,9.01
2022-12-03T09:41:28.095Z,8.97
2022-12-03T09:42:28.074Z,8.97
2022-12-03T09:43:49.547Z,8.99
2022-12-03T09:44:29.193Z,8.97
2022-12-03T09:45:28.037Z,8.97
2022-12-03T09:46:28.077Z,8.99
2022-12-03T09:47:28.014Z,8.99
2022-12-03T09:48:27.996Z,8.97
2022-12-03T09:49:27.986Z,8.97
2022-12-03T09:50:27.974Z,8.97
2022-12-03T09:51:27.960Z,8.97
2022-12-03T09:52:27.944Z,8.97
2022-12-03T09:53:27.944Z,8.94
2022-12-03T09:54:27.942Z,8.96
2022-12-03T09:55:27.907Z,8.96
2022-12-03T09:56:27.891Z,8.96
2022-12-03T09:57:27.882Z,8.96
2022-12-03T09:58:31.865Z,8.96
2022-12-03T09:59:28.895Z,8.96
2022-12-03T10:00:27.844Z,8.96
2022-12-03T10:01:30.357Z,8.96
2022-12-03T10:02:27.813Z,8.96
2022-12-03T10:03:30.024Z,8.94
2022-12-03T10:04:27.868Z,8.96
2022-12-03T10:05:27.774Z,8.97
2022-12-03T10:06:27.757Z,8.97
2022-12-03T10:07:27.860Z,8.97
2022-12-03T10:08:32.003Z,8.94
2022-12-03T10:09:27.723Z,8.97
2022-12-03T10:10:27.730Z,8.96
2022-12-03T10:11:27.697Z,8.96
2022-12-03T10:12:27.680Z,8.96
2022-12-03T10:13:27.669Z,8.96
2022-12-03T10:14:27.657Z,8.94
2022-12-03T10:15:27.641Z,8.96
2022-12-03T10:16:27.703Z,8.94
2022-12-03T10:17:27.615Z,8.96
2022-12-03T10:18:30.492Z,8.94
2022-12-03T10:19:27.596Z,8.97
2022-12-03T10:20:27.576Z,8.97
2022-12-03T10:21:27.564Z,8.94
2022-12-03T10:22:27.549Z,8.94
2022-12-03T10:23:27.540Z,8.96
2022-12-03T10:24:27.524Z,8.96
2022-12-03T10:25:27.509Z,8.96
2022-12-03T10:26:27.527Z,8.99
2022-12-03T10:27:27.484Z,8.99
2022-12-03T10:28:27.471Z,8.99
2022-12-03T10:29:33.275Z,8.97
2022-12-03T10:30:28.895Z,8.96
2022-12-03T10:31:27.533Z,8.97
2022-12-03T10:32:27.418Z,8.96
2022-12-03T10:33:27.407Z,8.96
2022-12-03T10:34:27.401Z,8.96
2022-12-03T10:35:27.382Z,8.97
2022-12-03T10:36:27.367Z,8.94
2022-12-03T10:37:27.356Z,8.97
2022-12-03T10:38:27.338Z,8.96
2022-12-03T10:39:27.327Z,8.97
2022-12-03T10:40:27.315Z,8.97
2022-12-03T10:41:27.302Z,8.97
2022-12-03T10:42:27.339Z,8.97
2022-12-03T10:43:27.274Z,8.97
2022-12-03T10:44:27.260Z,8.96
2022-12-03T10:45:27.249Z,8.97
2022-12-03T10:46:27.365Z,8.96
2022-12-03T10:47:27.396Z,8.96
2022-12-03T10:48:27.205Z,8.96
2022-12-03T10:49:27.194Z,8.96
2022-12-03T10:50:27.180Z,8.97
2022-12-03T10:51:27.173Z,8.96
2022-12-03T10:52:27.172Z,8.97
2022-12-03T10:53:27.139Z,8.97
2022-12-03T10:54:27.129Z,9.01
2022-12-03T10:55:27.117Z,8.99
2022-12-03T10:56:27.099Z,8.97
2022-12-03T10:57:27.091Z,8.97
2022-12-03T10:58:27.097Z,8.97
2022-12-03T10:59:27.065Z,8.97
2022-12-03T11:00:27.055Z,8.97
2022-12-03T11:01:27.133Z,8.94
2022-12-03T11:02:27.021Z,8.94
2022-12-03T11:03:27.089Z,8.96
2022-12-03T11:04:26.990Z,8.96
2022-12-03T11:05:26.978Z,8.94
2022-12-03T11:06:26.963Z,8.93
2022-12-03T11:07:26.979Z,8.94
2022-12-03T11:08:26.945Z,8.94
2022-12-03T11:09:26.929Z,8.93
2022-12-03T11:10:26.931Z,8.94
2022-12-03T11:11:26.937Z,8.91
2022-12-03T11:12:26.896Z,8.94
2022-12-03T11:13:26.895Z,8.94
2022-12-03T11:14:26.891Z,8.94
2022-12-03T11:15:26.851Z,8.93
2022-12-03T11:16:26.917Z,8.94
2022-12-03T11:17:26.823Z,8.94
2022-12-03T11:18:26.816Z,8.93
2022-12-03T11:19:26.801Z,8.94
2022-12-03T11:20:26.789Z,8.94
2022-12-03T11:21:26.771Z,8.96
2022-12-03T11:22:26.765Z,8.97
2022-12-03T11:23:26.755Z,8.96
2022-12-03T11:24:26.778Z,8.94
2022-12-03T11:25:26.722Z,8.96
2022-12-03T11:26:26.702Z,8.94
2022-12-03T11:27:26.686Z,8.96
2022-12-03T11:28:26.682Z,8.96
2022-12-03T11:29:26.666Z,8.94
2022-12-03T11:30:26.679Z,8.96
2022-12-03T11:31:26.801Z,8.94
2022-12-03T11:32:31.762Z,8.94
2022-12-03T11:33:26.613Z,8.94
2022-12-03T11:34:26.603Z,8.93
2022-12-03T11:35:26.587Z,8.93
2022-12-03T11:36:47.659Z,8.96
2022-12-03T11:37:27.602Z,8.96
2022-12-03T11:38:26.552Z,8.96
2022-12-03T11:39:26.533Z,8.94
2022-12-03T11:40:26.523Z,8.94
2022-12-03T11:41:26.507Z,8.96
2022-12-03T11:42:26.668Z,8.94
2022-12-03T11:43:26.481Z,8.96
2022-12-03T11:44:26.470Z,8.94
2022-12-03T11:45:26.456Z,8.94
2022-12-03T11:46:26.533Z,8.94
2022-12-03T11:47:26.427Z,8.93
2022-12-03T11:48:26.466Z,8.96
2022-12-03T11:49:26.401Z,8.93
2022-12-03T11:50:26.389Z,8.93
2022-12-03T11:51:26.375Z,8.94
2022-12-03T11:52:26.364Z,8.94
2022-12-03T11:53:26.349Z,8.93
2022-12-03T11:54:26.339Z,8.93
2022-12-03T11:55:26.323Z,8.91
2022-12-03T11:56:26.312Z,8.90
2022-12-03T11:57:26.296Z,8.91
2022-12-03T11:58:26.285Z,8.90
2022-12-03T11:59:26.270Z,8.90
2022-12-03T12:00:26.257Z,8.90
2022-12-03T12:01:26.244Z,8.90
2022-12-03T12:02:26.359Z,8.90
2022-12-03T12:03:26.398Z,8.90
2022-12-03T12:04:26.308Z,8.90
2022-12-03T12:05:26.191Z,8.88
2022-12-03T12:06:26.186Z,8.90
2022-12-03T12:07:26.241Z,8.91
2022-12-03T12:08:26.154Z,8.88
2022-12-03T12:09:26.140Z,8.90
2022-12-03T12:10:26.126Z,8.91
2022-12-03T12:11:26.116Z,8.91
2022-12-03T12:12:26.100Z,8.91
2022-12-03T12:13:26.088Z,8.93
2022-12-03T12:14:26.074Z,8.91
2022-12-03T12:15:26.060Z,8.93
2022-12-03T12:16:26.104Z,8.90
2022-12-03T12:17:26.032Z,8.93
2022-12-03T12:18:26.045Z,8.91
2022-12-03T12:19:26.006Z,8.93
2022-12-03T12:20:25.999Z,8.91
2022-12-03T12:21:25.985Z,8.93
2022-12-03T12:22:25.972Z,8.91
2022-12-03T12:23:25.954Z,8.93
2022-12-03T12:24:25.942Z,8.93
2022-12-03T12:25:25.933Z,8.93
2022-12-03T12:26:25.916Z,8.93
2022-12-03T12:27:25.900Z,8.94
2022-12-03T12:28:25.889Z,8.93
2022-12-03T12:29:25.874Z,8.94
2022-12-03T12:30:25.862Z,8.94
2022-12-03T12:31:25.925Z,8.93
2022-12-03T12:32:25.837Z,8.94
2022-12-03T12:33:25.822Z,8.94
2022-12-03T12:34:25.840Z,8.94
2022-12-03T12:35:25.793Z,8.94
2022-12-03T12:36:25.783Z,8.94
2022-12-03T12:37:25.768Z,8.96
2022-12-03T12:38:25.760Z,8.96
2022-12-03T12:39:25.741Z,8.94
2022-12-03T12:40:25.731Z,8.96
2022-12-03T12:41:25.716Z,8.96
2022-12-03T12:42:25.704Z,8.96
2022-12-03T12:43:25.691Z,8.93
2022-12-03T12:44:25.676Z,8.96
2022-12-03T12:45:25.666Z,8.96
2022-12-03T12:46:47.380Z,8.97
2022-12-03T12:47:26.809Z,8.96
2022-12-03T12:48:25.631Z,8.96
2022-12-03T12:49:25.610Z,8.96
2022-12-03T12:50:25.625Z,8.96
2022-12-03T12:51:25.584Z,8.96
2022-12-03T12:52:25.574Z,8.96
2022-12-03T12:53:25.559Z,8.94
2022-12-03T12:54:25.546Z,8.94
2022-12-03T12:55:25.533Z,8.96
2022-12-03T12:56:25.524Z,8.94
2022-12-03T12:57:25.510Z,8.96
2022-12-03T12:58:25.495Z,8.96
2022-12-03T12:59:25.483Z,8.96
2022-12-03T13:00:25.476Z,8.96
2022-12-03T13:01:25.567Z,8.93
2022-12-03T13:02:25.504Z,8.93
2022-12-03T13:03:25.425Z,8.96
2022-12-03T13:04:25.415Z,8.94
2022-12-03T13:05:25.402Z,8.94
2022-12-03T13:06:25.415Z,8.94
2022-12-03T13:07:25.495Z,8.91
2022-12-03T13:08:25.504Z,8.94
2022-12-03T13:09:25.348Z,8.94
2022-12-03T13:10:25.334Z,8.94
2022-12-03T13:11:25.329Z,8.93
2022-12-03T13:12:25.308Z,8.94
2022-12-03T13:13:25.294Z,8.93
2022-12-03T13:14:25.283Z,8.93
2022-12-03T13:15:25.266Z,8.91
2022-12-03T13:16:25.329Z,8.91
2022-12-03T13:17:25.248Z,8.96
2022-12-03T13:18:25.230Z,8.94